Time;durP1;ratioP1;P1;durP2;ratioP2;P2;SDS_P1;SDS_P2;PMS_P1;PMS_P2;Temp;Humidity;BMP_temperature;BMP_pressure;BME280_temperature;BME280_humidity;BME280_pressure;Samples;Min_cycle;Max_cycle;Signal;HPM_P1;HPM_P2
2023/03/25 00:01:59;;;;;;;10.82;1.90;;;10.10;99.90;;;;;;4197328;28;20047;-84
2023/03/25 00:04:03;;;;;;;19.38;3.45;;;10.20;99.90;;;;;;4232392;28;20488;-84
2023/03/25 00:06:06;;;;;;;13.90;2.80;;;10.20;99.90;;;;;;4214062;28;20055;-85
2023/03/25 00:08:07;;;;;;;10.80;2.90;;;10.10;99.90;;;;;;4231497;28;20047;-84
2023/03/25 00:10:10;;;;;;;11.57;1.98;;;10.10;99.90;;;;;;4232158;28;20078;-85
2023/03/25 00:12:11;;;;;;;16.15;2.17;;;10.10;99.90;;;;;;4231622;28;20397;-84
2023/03/25 00:14:15;;;;;;;10.70;2.22;;;10.10;99.90;;;;;;4231893;28;20069;-84
2023/03/25 00:16:17;;;;;;;13.60;2.38;;;10.10;99.90;;;;;;4232196;28;20161;-84
2023/03/25 00:18:21;;;;;;;15.02;2.50;;;10.10;99.90;;;;;;4231822;28;20043;-84
2023/03/25 00:20:22;;;;;;;13.80;2.13;;;10.10;99.90;;;;;;4232147;28;20609;-84
2023/03/25 00:22:24;;;;;;;17.75;1.50;;;10.10;99.90;;;;;;4213917;28;20052;-84
2023/03/25 00:24:24;;;;;;;8.23;2.47;;;10.10;99.90;;;;;;4196644;28;20049;-84
2023/03/25 00:26:28;;;;;;;12.45;1.45;;;10.10;99.90;;;;;;4226092;28;20039;-84
2023/03/25 00:28:32;;;;;;;15.40;2.45;;;10.00;99.90;;;;;;4214235;28;20044;-83
2023/03/25 00:30:33;;;;;;;13.40;1.95;;;10.10;99.90;;;;;;4196782;28;20114;-84
2023/03/25 00:32:34;;;;;;;9.95;1.38;;;10.00;99.90;;;;;;4214904;28;20040;-83
2023/03/25 00:34:40;;;;;;;12.85;2.17;;;10.00;99.90;;;;;;4197108;28;20153;-84
2023/03/25 00:36:42;;;;;;;13.93;2.17;;;10.00;99.90;;;;;;4180205;28;20051;-84
2023/03/25 00:38:44;;;;;;;13.45;2.00;;;10.00;99.90;;;;;;4179709;28;20056;-84
2023/03/25 00:40:47;;;;;;;17.98;2.75;;;10.00;99.90;;;;;;4214545;28;20465;-84
2023/03/25 00:42:49;;;;;;;15.38;1.80;;;9.90;99.90;;;;;;4196766;28;20121;-84
2023/03/25 00:44:49;;;;;;;11.82;1.55;;;9.90;99.90;;;;;;4192236;28;20111;-84
2023/03/25 00:46:50;;;;;;;15.38;3.92;;;9.90;99.90;;;;;;4212954;28;20130;-83
2023/03/25 00:48:51;;;;;;;19.98;3.38;;;9.90;99.90;;;;;;4196423;28;20562;-84
2023/03/25 00:50:52;;;;;;;8.10;1.60;;;9.80;99.90;;;;;;4213020;28;20052;-84
2023/03/25 00:52:54;;;;;;;21.55;2.70;;;9.80;99.90;;;;;;4231689;28;20480;-84
2023/03/25 00:54:55;;;;;;;12.73;2.30;;;9.80;99.90;;;;;;4231061;28;20035;-84
2023/03/25 00:56:56;;;;;;;11.60;2.92;;;9.80;99.90;;;;;;4195174;28;20044;-84
2023/03/25 00:58:57;;;;;;;8.32;1.83;;;9.80;99.90;;;;;;4231415;28;20110;-84
2023/03/25 01:00:58;;;;;;;15.13;1.83;;;9.80;99.90;;;;;;4230726;28;20388;-84
2023/03/25 01:03:02;;;;;;;13.68;3.28;;;9.70;99.90;;;;;;4231332;28;20050;-84
2023/03/25 01:05:03;;;;;;;19.85;1.92;;;9.70;99.90;;;;;;4196632;28;20045;-84
2023/03/25 01:07:04;;;;;;;17.23;2.25;;;9.70;99.90;;;;;;4212548;28;20501;-84
2023/03/25 01:09:12;;;;;;;14.20;3.22;;;9.70;99.90;;;;;;4212981;28;20139;-85
2023/03/25 01:11:21;;;;;;;12.38;2.03;;;9.70;99.90;;;;;;4231118;28;20490;-84
2023/03/25 01:13:23;;;;;;;10.35;2.03;;;9.70;99.90;;;;;;4212748;28;20059;-85
2023/03/25 01:15:25;;;;;;;18.35;2.30;;;9.70;99.90;;;;;;4212904;28;20036;-84
2023/03/25 01:17:26;;;;;;;12.55;1.88;;;9.70;99.90;;;;;;4196578;28;20056;-84
2023/03/25 01:19:27;;;;;;;16.38;2.42;;;9.60;99.90;;;;;;4212916;28;20200;-84
2023/03/25 01:21:29;;;;;;;19.20;2.53;;;9.60;99.90;;;;;;4230745;28;20502;-84
2023/03/25 01:23:29;;;;;;;14.95;3.17;;;9.50;99.90;;;;;;4212444;28;20051;-84
2023/03/25 01:25:30;;;;;;;12.35;1.90;;;9.50;99.90;;;;;;4196072;28;20501;-84
2023/03/25 01:27:31;;;;;;;18.67;2.95;;;9.10;99.90;;;;;;4212802;28;20047;-84
2023/03/25 01:29:32;;;;;;;22.50;3.45;;;9.40;99.90;;;;;;4211687;28;20082;-84
2023/03/25 01:31:33;;;;;;;21.17;3.25;;;9.00;99.90;;;;;;4231005;28;20110;-84
2023/03/25 01:33:34;;;;;;;15.10;2.50;;;9.30;99.90;;;;;;4212219;28;20048;-84
2023/03/25 01:35:35;;;;;;;19.15;2.33;;;9.30;99.90;;;;;;4212833;28;20621;-84
2023/03/25 01:37:37;;;;;;;18.25;2.40;;;9.30;99.90;;;;;;4212609;28;20492;-84
2023/03/25 01:39:38;;;;;;;16.88;1.92;;;9.30;99.90;;;;;;4212975;28;20082;-84
2023/03/25 01:41:39;;;;;;;18.75;2.63;;;9.30;99.90;;;;;;4196191;28;20044;-85
2023/03/25 01:43:39;;;;;;;17.70;2.15;;;9.30;99.90;;;;;;4230470;28;20075;-84
2023/03/25 01:45:44;;;;;;;17.52;2.58;;;9.30;99.90;;;;;;4231804;28;20055;-84
2023/03/25 01:47:48;;;;;;;14.35;2.25;;;9.20;99.90;;;;;;4213218;28;20123;-84
2023/03/25 01:49:49;;;;;;;19.52;2.78;;;9.20;99.90;;;;;;4180633;28;20057;-84
2023/03/25 01:51:55;;;;;;;15.15;2.08;;;9.20;99.90;;;;;;4223096;28;20572;-84
2023/03/25 01:53:56;;;;;;;25.15;3.03;;;9.10;99.90;;;;;;4199648;28;20056;-84
2023/03/25 01:56:01;;;;;;;10.45;2.75;;;9.20;99.90;;;;;;4215163;28;20127;-84
2023/03/25 01:58:09;;;;;;;15.52;2.97;;;9.10;99.90;;;;;;4205361;28;20076;-83
2023/03/25 02:00:11;;;;;;;12.80;2.83;;;9.10;99.90;;;;;;4225248;28;20040;-83
2023/03/25 02:02:16;;;;;;;19.90;3.50;;;9.10;99.90;;;;;;4203297;28;20052;-84
2023/03/25 02:04:26;;;;;;;23.13;2.72;;;9.10;99.90;;;;;;4220628;28;20036;-84
2023/03/25 02:06:34;;;;;;;20.13;3.40;;;9.10;99.90;;;;;;4187400;28;20057;-83
2023/03/25 02:08:40;;;;;;;13.13;2.28;;;9.10;99.90;;;;;;4203531;28;20490;-83
2023/03/25 02:10:45;;;;;;;17.95;2.85;;;9.00;99.90;;;;;;4188598;28;20048;-84
2023/03/25 02:12:46;;;;;;;20.48;2.55;;;9.00;99.90;;;;;;4219077;28;20088;-84
2023/03/25 02:14:48;;;;;;;23.95;3.03;;;9.00;99.90;;;;;;4183800;28;20103;-84
2023/03/25 02:16:57;;;;;;;18.08;3.00;;;8.90;99.90;;;;;;4218225;28;20043;-84
2023/03/25 02:19:35;;;;;;;22.35;2.95;;;8.90;99.90;;;;;;4182764;28;20045;-85
2023/03/25 02:21:57;;;;;;;13.23;2.45;;;8.90;99.90;;;;;;4199462;28;20037;-85
2023/03/25 02:24:22;;;;;;;19.10;2.97;;;8.90;99.90;;;;;;4183268;28;20405;-85
2023/03/25 02:26:35;;;;;;;19.35;2.90;;;8.10;99.90;;;;;;4184297;28;20091;-85
2023/03/25 02:29:16;;;;;;;17.83;3.72;;;8.90;99.90;;;;;;4218524;28;20043;-85
2023/03/25 02:31:42;;;;;;;27.88;4.35;;;8.90;99.90;;;;;;4200165;28;20052;-85
2023/03/25 02:34:02;;;;;;;23.08;2.80;;;9.00;99.90;;;;;;4217842;28;20486;-85
2023/03/25 02:36:29;;;;;;;16.33;3.40;;;8.90;99.90;;;;;;4199788;28;20036;-85
2023/03/25 02:38:47;;;;;;;23.27;2.00;;;9.00;99.90;;;;;;4217789;28;20063;-84
2023/03/25 02:41:01;;;;;;;19.92;3.13;;;9.00;99.90;;;;;;4217549;28;20090;-85
2023/03/25 02:43:21;;;;;;;27.42;4.40;;;9.00;99.90;;;;;;4217911;28;20051;-85
2023/03/25 02:45:29;;;;;;;17.67;3.15;;;9.00;99.90;;;;;;4183298;28;20451;-84
2023/03/25 02:47:38;;;;;;;17.35;2.38;;;9.00;99.90;;;;;;4225326;28;20052;-84
2023/03/25 02:49:51;;;;;;;21.73;2.30;;;9.10;99.90;;;;;;4217860;28;20404;-85
2023/03/25 02:52:08;;;;;;;29.38;4.30;;;9.10;99.90;;;;;;4217310;28;20048;-85
2023/03/25 02:54:12;;;;;;;19.10;2.28;;;9.10;99.90;;;;;;4217405;28;20542;-86
2023/03/25 02:56:16;;;;;;;11.90;2.60;;;9.00;99.90;;;;;;4216895;28;20044;-85
2023/03/25 02:58:20;;;;;;;17.88;3.50;;;9.10;99.90;;;;;;4182689;28;20061;-85
2023/03/25 03:00:26;;;;;;;17.52;3.20;;;9.10;99.90;;;;;;4182606;28;20056;-85
2023/03/25 03:02:31;;;;;;;20.70;4.07;;;9.10;99.90;;;;;;4198797;28;20048;-85
2023/03/25 03:04:31;;;;;;;20.83;3.20;;;9.10;99.90;;;;;;4198935;28;20127;-85
2023/03/25 03:06:40;;;;;;;13.30;2.65;;;9.10;99.90;;;;;;4182454;28;20053;-84
2023/03/25 03:08:49;;;;;;;19.08;2.30;;;9.20;99.90;;;;;;4182199;28;20084;-85
2023/03/25 03:10:56;;;;;;;17.85;3.30;;;9.10;99.90;;;;;;4189612;28;20123;-84
2023/03/25 03:13:04;;;;;;;18.83;2.85;;;9.10;99.90;;;;;;4170782;28;20045;-85
2023/03/25 03:15:49;;;;;;;18.50;2.88;;;9.10;99.90;;;;;;4165657;28;20048;-85
2023/03/25 03:17:59;;;;;;;18.08;2.85;;;9.10;99.90;;;;;;4183353;28;20056;-85
2023/03/25 03:20:12;;;;;;;16.25;2.28;;;9.20;99.90;;;;;;4181112;28;20064;-84
2023/03/25 03:22:40;;;;;;;22.65;3.55;;;9.20;99.90;;;;;;4181664;28;20784;-85
2023/03/25 03:24:48;;;;;;;18.85;2.58;;;9.10;99.90;;;;;;4183273;28;20041;-84
2023/03/25 03:27:13;;;;;;;19.33;2.85;;;9.10;99.90;;;;;;4183050;28;20049;-84
2023/03/25 03:29:26;;;;;;;17.77;3.25;;;9.20;99.90;;;;;;4182967;28;20116;-84
2023/03/25 03:31:52;;;;;;;21.02;3.65;;;8.90;99.90;;;;;;4182992;28;20067;-85
2023/03/25 03:34:01;;;;;;;12.43;2.28;;;9.20;99.90;;;;;;4183488;28;20556;-85
2023/03/25 03:36:14;;;;;;;20.15;2.72;;;9.20;99.90;;;;;;4181674;28;20049;-84
2023/03/25 03:38:18;;;;;;;20.45;2.60;;;9.20;99.90;;;;;;4181578;28;20128;-85
2023/03/25 03:40:23;;;;;;;15.85;2.67;;;9.20;99.90;;;;;;4165598;28;20116;-84
2023/03/25 03:42:39;;;;;;;17.13;3.63;;;9.20;99.90;;;;;;4183263;28;20398;-84
2023/03/25 03:44:45;;;;;;;15.32;2.60;;;9.20;99.90;;;;;;4181792;28;20079;-85
2023/03/25 03:47:01;;;;;;;24.80;4.53;;;9.20;99.90;;;;;;4182927;28;20041;-84
2023/03/25 03:49:06;;;;;;;22.25;3.08;;;9.20;99.90;;;;;;4182672;28;20037;-86
2023/03/25 03:51:33;;;;;;;17.20;2.45;;;9.20;99.90;;;;;;4181437;28;20053;-84
2023/03/25 03:53:39;;;;;;;19.60;2.60;;;9.20;99.90;;;;;;4164893;28;20518;-84
2023/03/25 03:55:51;;;;;;;23.85;3.72;;;9.30;99.90;;;;;;4181685;28;20509;-85
2023/03/25 03:57:58;;;;;;;16.52;2.72;;;9.20;99.90;;;;;;4182593;28;20464;-85
2023/03/25 04:00:08;;;;;;;21.20;2.53;;;9.20;99.90;;;;;;4165183;28;20408;-85
2023/03/25 04:02:34;;;;;;;15.00;2.80;;;9.20;99.90;;;;;;4197328;28;20128;-84
2023/03/25 04:04:37;;;;;;;20.70;2.80;;;9.20;99.90;;;;;;4199353;28;20045;-85
2023/03/25 04:06:40;;;;;;;16.80;2.50;;;10.20;99.90;;;;;;4199558;28;20577;-85
2023/03/25 04:08:58;;;;;;;21.85;3.67;;;9.10;99.90;;;;;;4193043;28;20095;-85
2023/03/25 04:11:08;;;;;;;28.02;2.92;;;10.70;99.90;;;;;;4182984;28;20053;-85
2023/03/25 04:13:12;;;;;;;27.77;4.55;;;9.10;99.90;;;;;;4181197;28;20099;-85
2023/03/25 04:15:15;;;;;;;20.70;3.58;;;9.00;99.90;;;;;;4180594;28;20087;-85
2023/03/25 04:17:16;;;;;;;17.42;3.38;;;9.10;99.90;;;;;;4181454;28;20061;-85
2023/03/25 04:19:18;;;;;;;17.70;3.63;;;8.00;99.90;;;;;;4180781;28;20137;-85
2023/03/25 04:21:20;;;;;;;21.50;2.72;;;9.00;99.90;;;;;;4182580;28;20045;-84
2023/03/25 04:23:21;;;;;;;17.73;3.53;;;9.00;99.90;;;;;;4180747;28;20124;-84
2023/03/25 04:25:24;;;;;;;28.58;3.28;;;9.00;99.90;;;;;;4181740;28;20079;-83
2023/03/25 04:27:28;;;;;;;18.42;3.90;;;8.00;99.90;;;;;;4196423;28;20541;-83
2023/03/25 04:29:30;;;;;;;26.80;3.63;;;9.00;99.90;;;;;;4181946;28;20155;-84
2023/03/25 04:31:31;;;;;;;19.30;4.32;;;9.00;99.90;;;;;;4164320;28;20049;-84
2023/03/25 04:33:34;;;;;;;19.08;2.63;;;10.30;99.90;;;;;;4181920;28;20041;-84
2023/03/25 04:35:35;;;;;;;32.80;3.97;;;9.10;99.90;;;;;;4182519;28;20533;-85
2023/03/25 04:37:37;;;;;;;18.80;3.00;;;9.00;99.90;;;;;;4180171;28;20052;-84
2023/03/25 04:39:38;;;;;;;19.35;2.92;;;10.40;99.90;;;;;;4181762;28;20044;-84
2023/03/25 04:41:39;;;;;;;25.25;3.53;;;9.10;99.90;;;;;;4166751;28;20084;-85
2023/03/25 04:43:43;;;;;;;19.42;2.85;;;9.10;99.90;;;;;;4196892;28;20125;-85
2023/03/25 04:45:52;;;;;;;14.05;3.42;;;9.10;99.90;;;;;;4198304;28;20094;-85
2023/03/25 04:47:53;;;;;;;23.38;3.80;;;9.10;99.90;;;;;;4198467;28;20072;-85
2023/03/25 04:49:54;;;;;;;17.52;2.83;;;9.00;99.90;;;;;;4179633;28;20390;-85
2023/03/25 04:51:55;;;;;;;19.58;3.00;;;9.10;99.90;;;;;;4180692;28;20044;-84
2023/03/25 04:53:56;;;;;;;21.98;2.55;;;9.20;99.90;;;;;;4180462;28;20128;-85
2023/03/25 04:55:57;;;;;;;24.70;4.30;;;9.10;99.90;;;;;;4163950;28;20527;-86
2023/03/25 04:57:58;;;;;;;18.15;3.40;;;9.10;99.90;;;;;;4181443;28;20045;-84
2023/03/25 04:59:59;;;;;;;17.65;2.13;;;9.00;99.90;;;;;;4181794;28;20548;-84
2023/03/25 05:02:04;;;;;;;16.77;2.85;;;10.30;99.90;;;;;;4179542;28;20049;-84
2023/03/25 05:04:06;;;;;;;25.30;4.00;;;9.00;99.90;;;;;;4180281;28;20088;-84
2023/03/25 05:06:10;;;;;;;19.20;2.53;;;9.00;99.90;;;;;;4179762;28;20055;-84
2023/03/25 05:08:10;;;;;;;15.50;2.58;;;9.00;99.90;;;;;;4181136;28;20053;-84
2023/03/25 05:10:12;;;;;;;20.80;2.70;;;8.60;99.90;;;;;;4181295;28;20089;-84
2023/03/25 05:12:13;;;;;;;17.83;2.22;;;8.00;99.90;;;;;;4178723;28;20387;-84
2023/03/25 05:14:16;;;;;;;16.17;3.85;;;9.00;99.90;;;;;;4180783;28;20083;-83
2023/03/25 05:16:19;;;;;;;18.20;3.80;;;9.00;99.90;;;;;;4192289;28;20040;-84
2023/03/25 05:18:20;;;;;;;22.65;2.90;;;9.00;99.90;;;;;;4197329;28;20041;-84
2023/03/25 05:20:21;;;;;;;22.55;2.80;;;9.10;99.90;;;;;;4196649;28;20569;-84
2023/03/25 05:22:22;;;;;;;20.85;3.63;;;9.00;99.90;;;;;;4195992;28;20051;-84
2023/03/25 05:24:23;;;;;;;18.20;3.47;;;9.00;99.90;;;;;;4195809;28;20044;-84
2023/03/25 05:26:24;;;;;;;27.20;4.82;;;9.00;99.90;;;;;;4179350;28;20073;-84
2023/03/25 05:28:25;;;;;;;18.80;5.28;;;9.00;99.90;;;;;;4178996;28;20397;-84
2023/03/25 05:30:31;;;;;;;29.88;2.75;;;9.20;99.90;;;;;;4190105;28;20052;-84
2023/03/25 05:32:32;;;;;;;16.50;3.15;;;9.10;99.90;;;;;;4204679;28;20129;-84
2023/03/25 05:34:33;;;;;;;16.23;2.38;;;9.00;99.90;;;;;;4162140;28;20110;-84
2023/03/25 05:36:34;;;;;;;13.85;2.13;;;9.20;99.90;;;;;;4189254;28;20553;-84
2023/03/25 05:38:40;;;;;;;19.48;3.55;;;9.10;99.90;;;;;;4179638;28;20044;-84
2023/03/25 05:40:41;;;;;;;28.05;3.42;;;9.10;99.90;;;;;;4197312;28;20051;-84
2023/03/25 05:42:45;;;;;;;22.65;2.80;;;9.10;99.90;;;;;;4195395;28;20537;-83
2023/03/25 05:44:49;;;;;;;18.38;3.67;;;9.00;99.90;;;;;;4196317;28;20091;-84
2023/03/25 05:46:50;;;;;;;19.30;2.60;;;9.00;99.90;;;;;;4189072;28;20119;-84
2023/03/25 05:48:51;;;;;;;14.90;2.60;;;9.10;99.90;;;;;;4195466;28;20519;-84
2023/03/25 05:50:55;;;;;;;10.20;2.72;;;9.30;99.90;;;;;;4196182;28;20052;-84
2023/03/25 05:52:56;;;;;;;25.02;4.03;;;9.00;99.90;;;;;;4179528;28;20044;-84
2023/03/25 05:54:57;;;;;;;19.65;2.92;;;9.10;99.90;;;;;;4178978;28;20400;-84
2023/03/25 05:56:57;;;;;;;13.05;2.53;;;9.10;99.90;;;;;;4196954;28;20127;-84
2023/03/25 05:58:58;;;;;;;14.57;2.53;;;9.10;99.90;;;;;;4179389;28;20049;-84
2023/03/25 06:01:01;;;;;;;25.77;3.08;;;9.10;99.90;;;;;;4196102;28;20131;-84
2023/03/25 06:03:05;;;;;;;19.75;2.92;;;9.00;99.90;;;;;;4197093;28;20044;-84
2023/03/25 06:05:06;;;;;;;24.63;3.15;;;9.10;99.90;;;;;;4197403;28;20055;-84
2023/03/25 06:07:18;;;;;;;20.02;2.95;;;9.20;99.90;;;;;;4197225;28;20131;-84
2023/03/25 06:09:19;;;;;;;25.52;4.18;;;9.10;99.90;;;;;;4197237;28;20082;-84
2023/03/25 06:11:20;;;;;;;29.65;2.97;;;9.10;99.90;;;;;;4197163;28;20520;-84
2023/03/25 06:13:21;;;;;;;22.27;2.70;;;9.00;99.90;;;;;;4210424;28;20052;-84
2023/03/25 06:15:27;;;;;;;28.20;2.88;;;9.10;99.90;;;;;;4213706;28;20377;-84
2023/03/25 06:17:28;;;;;;;16.98;1.77;;;9.10;99.90;;;;;;4195022;28;20458;-84
2023/03/25 06:19:29;;;;;;;17.77;3.47;;;9.10;99.90;;;;;;4195593;28;20052;-84
2023/03/25 06:21:32;;;;;;;25.50;4.05;;;9.10;99.90;;;;;;4212163;28;20577;-84
2023/03/25 06:23:35;;;;;;;19.33;2.97;;;9.10;99.90;;;;;;4213800;28;20119;-85
2023/03/25 06:25:36;;;;;;;27.95;3.85;;;9.10;99.90;;;;;;4212696;28;20190;-84
2023/03/25 06:27:40;;;;;;;20.40;2.58;;;9.10;99.90;;;;;;4195505;28;20076;-84
2023/03/25 06:29:42;;;;;;;22.23;3.42;;;9.10;99.90;;;;;;4195452;28;20070;-84
2023/03/25 06:31:43;;;;;;;34.28;5.20;;;9.10;99.90;;;;;;4213469;28;20105;-84
2023/03/25 06:33:45;;;;;;;28.95;2.80;;;9.10;99.90;;;;;;4211492;28;20043;-84
2023/03/25 06:35:53;;;;;;;20.77;3.88;;;9.10;99.90;;;;;;4212216;28;20051;-83
2023/03/25 06:37:54;;;;;;;18.20;3.13;;;9.20;99.90;;;;;;4213295;28;20115;-85
2023/03/25 06:39:55;;;;;;;18.13;2.67;;;9.10;99.90;;;;;;4213470;28;20033;-85
2023/03/25 06:41:58;;;;;;;11.68;1.73;;;9.00;99.90;;;;;;4195070;28;20040;-85
2023/03/25 06:43:59;;;;;;;12.65;2.00;;;8.90;99.90;;;;;;4213234;28;20450;-85
2023/03/25 06:46:00;;;;;;;20.60;2.60;;;8.90;99.90;;;;;;4212633;28;20107;-84
2023/03/25 06:48:01;;;;;;;15.27;1.98;;;8.00;99.90;;;;;;4212054;28;20051;-84
2023/03/25 06:50:01;;;;;;;14.73;2.50;;;8.70;99.90;;;;;;4179159;28;20514;-84
2023/03/25 06:52:02;;;;;;;19.73;3.00;;;8.60;99.90;;;;;;4195202;28;20048;-84
2023/03/25 06:54:03;;;;;;;19.05;4.63;;;8.60;99.90;;;;;;4189285;28;20473;-85
2023/03/25 06:56:04;;;;;;;16.25;2.17;;;8.50;99.90;;;;;;4216842;28;20123;-84
2023/03/25 06:58:05;;;;;;;19.77;3.10;;;8.60;99.90;;;;;;4215595;28;20549;-84
2023/03/25 07:00:07;;;;;;;26.70;2.95;;;8.50;99.90;;;;;;4204132;28;20083;-84
2023/03/25 07:02:12;;;;;;;6.80;1.90;;;8.60;99.90;;;;;;4199593;28;20055;-84
2023/03/25 07:04:12;;;;;;;21.42;3.35;;;8.60;99.90;;;;;;4199997;28;20394;-85
2023/03/25 07:06:17;;;;;;;23.95;3.22;;;8.60;99.90;;;;;;4208617;28;20076;-85
2023/03/25 07:08:18;;;;;;;20.88;3.75;;;8.70;99.90;;;;;;4198892;28;20052;-84
2023/03/25 07:10:19;;;;;;;13.55;3.30;;;8.90;99.90;;;;;;4216534;28;20504;-84
2023/03/25 07:12:21;;;;;;;16.48;2.70;;;8.80;99.90;;;;;;4210936;28;20051;-85
2023/03/25 07:14:21;;;;;;;19.17;3.40;;;8.90;99.90;;;;;;4198253;28;20044;-84
2023/03/25 07:16:22;;;;;;;10.43;2.00;;;8.90;99.90;;;;;;4216168;28;20415;-85
2023/03/25 07:18:23;;;;;;;8.35;1.95;;;9.00;99.90;;;;;;4181744;28;20128;-84
2023/03/25 07:20:25;;;;;;;15.25;2.15;;;9.00;99.90;;;;;;4216433;28;20460;-85
2023/03/25 07:22:26;;;;;;;22.20;3.70;;;9.10;99.90;;;;;;4226802;28;20036;-84
2023/03/25 07:24:28;;;;;;;9.63;2.22;;;9.20;99.90;;;;;;4232939;28;20050;-85
2023/03/25 07:26:28;;;;;;;14.85;3.85;;;9.30;99.90;;;;;;4215543;28;20052;-84
2023/03/25 07:28:29;;;;;;;14.00;1.48;;;9.30;99.90;;;;;;4198935;28;20202;-85
2023/03/25 07:30:30;;;;;;;8.93;1.80;;;9.10;99.90;;;;;;4215321;28;20153;-85
2023/03/25 07:32:32;;;;;;;16.13;3.22;;;9.00;99.90;;;;;;4215398;28;20040;-84
2023/03/25 07:34:37;;;;;;;12.30;1.60;;;9.50;99.90;;;;;;4233272;28;20048;-84
2023/03/25 07:36:37;;;;;;;14.55;1.73;;;9.50;99.90;;;;;;4216184;28;20090;-85
2023/03/25 07:38:38;;;;;;;12.15;1.90;;;8.80;99.90;;;;;;4234646;28;20043;-85
2023/03/25 07:40:39;;;;;;;13.93;1.92;;;8.80;99.90;;;;;;4198415;28;20414;-85
2023/03/25 07:42:40;;;;;;;11.60;2.10;;;9.90;99.90;;;;;;4183408;28;20099;-84
2023/03/25 07:44:49;;;;;;;9.95;1.63;;;9.20;99.90;;;;;;4217056;28;20047;-85
2023/03/25 07:46:50;;;;;;;14.32;2.10;;;9.10;99.90;;;;;;4198703;28;20052;-84
2023/03/25 07:48:50;;;;;;;12.32;2.17;;;9.10;99.90;;;;;;4194554;28;20131;-85
2023/03/25 07:50:52;;;;;;;16.67;2.35;;;8.90;99.90;;;;;;4215935;28;20051;-84
2023/03/25 07:52:59;;;;;;;13.25;1.92;;;9.10;99.90;;;;;;4232931;28;20035;-84
2023/03/25 07:55:00;;;;;;;18.70;3.25;;;9.00;99.90;;;;;;4215685;28;20086;-85
2023/03/25 07:57:18;;;;;;;16.23;2.72;;;9.20;99.90;;;;;;4239547;28;20062;-85
2023/03/25 07:59:19;;;;;;;11.10;2.10;;;7.40;99.90;;;;;;4244449;28;20050;-85
2023/03/25 08:01:21;;;;;;;15.65;2.47;;;9.70;99.90;;;;;;4230553;28;20134;-87
2023/03/25 08:03:39;;;;;;;10.63;2.15;;;8.70;99.90;;;;;;4213467;28;20137;-85
2023/03/25 08:05:55;;;;;;;10.50;1.57;;;9.60;99.90;;;;;;4202135;28;20056;-85
2023/03/25 08:07:58;;;;;;;9.98;1.30;;;9.00;99.90;;;;;;4206335;28;20051;-85
2023/03/25 08:10:00;;;;;;;4.57;1.63;;;8.60;99.90;;;;;;4207496;28;20068;-86
2023/03/25 08:12:01;;;;;;;13.23;1.70;;;8.60;99.90;;;;;;4209700;28;20052;-84
2023/03/25 08:14:03;;;;;;;8.27;1.55;;;8.60;99.90;;;;;;4202089;28;20116;-86
2023/03/25 08:16:10;;;;;;;13.40;1.85;;;8.60;99.90;;;;;;4228489;28;20047;-83
2023/03/25 08:18:11;;;;;;;9.88;1.70;;;8.70;99.90;;;;;;4232364;28;20043;-84
2023/03/25 08:20:13;;;;;;;12.43;1.50;;;8.60;99.90;;;;;;4247413;27;20040;-84
2023/03/25 08:22:15;;;;;;;12.93;1.90;;;8.60;99.90;;;;;;4232950;28;20047;-85
2023/03/25 08:24:15;;;;;;;16.50;2.22;;;8.60;99.90;;;;;;4240579;28;20052;-84
2023/03/25 08:26:17;;;;;;;14.10;2.25;;;8.60;99.90;;;;;;4234043;28;20098;-85
2023/03/25 08:28:22;;;;;;;9.95;1.90;;;8.60;99.90;;;;;;4227249;28;20135;-84
2023/03/25 08:30:23;;;;;;;10.88;1.92;;;8.60;99.90;;;;;;4204907;28;20067;-86
2023/03/25 08:32:25;;;;;;;8.70;1.50;;;8.60;99.90;;;;;;4218360;28;20098;-85
2023/03/25 08:34:33;;;;;;;8.75;2.35;;;8.60;99.90;;;;;;4259605;27;20058;-83
2023/03/25 08:36:38;;;;;;;13.75;2.75;;;8.60;99.90;;;;;;4230221;27;20088;-84
2023/03/25 08:38:40;;;;;;;12.30;2.03;;;8.70;99.90;;;;;;4201557;28;20041;-85
2023/03/25 08:40:42;;;;;;;16.10;1.77;;;8.70;99.90;;;;;;4248344;27;20038;-84
2023/03/25 08:42:43;;;;;;;14.02;2.30;;;8.60;99.90;;;;;;4253872;27;20031;-84
2023/03/25 08:44:44;;;;;;;12.63;1.90;;;8.60;99.90;;;;;;4233289;28;20104;-84
2023/03/25 08:46:46;;;;;;;12.27;2.45;;;8.60;99.90;;;;;;4251660;27;20036;-84
2023/03/25 08:48:48;;;;;;;15.27;3.03;;;8.60;99.90;;;;;;4230007;27;20035;-84
2023/03/25 08:50:49;;;;;;;12.57;1.42;;;8.60;99.90;;;;;;4218062;28;20040;-84
2023/03/25 08:52:52;;;;;;;14.07;2.05;;;8.70;99.90;;;;;;4266676;27;20039;-84
2023/03/25 08:54:54;;;;;;;14.20;2.47;;;8.80;99.90;;;;;;4269470;27;20054;-83
2023/03/25 08:56:55;;;;;;;14.18;1.75;;;8.70;99.90;;;;;;4235949;28;20020;-84
2023/03/25 08:58:55;;;;;;;9.95;1.58;;;8.80;99.90;;;;;;4268812;27;20054;-84
2023/03/25 09:00:56;;;;;;;7.82;1.20;;;8.80;99.90;;;;;;4252136;27;20032;-84
2023/03/25 09:02:59;;;;;;;12.43;1.40;;;9.00;99.90;;;;;;4268748;27;20031;-83
2023/03/25 09:05:00;;;;;;;11.20;1.30;;;10.60;99.90;;;;;;4233215;27;20048;-84
2023/03/25 09:07:02;;;;;;;9.68;1.77;;;;;;;;;;4233528;28;20088;-85
2023/03/25 09:09:04;;;;;;;14.15;2.15;;;;;;;;;;4217847;28;20036;-84
2023/03/25 09:11:05;;;;;;;19.08;2.83;;;;;;;;;;4230003;28;20052;-84
2023/03/25 09:13:09;;;;;;;18.90;2.53;;;10.00;99.90;;;;;;4233964;28;20065;-85
2023/03/25 09:15:11;;;;;;;7.47;2.00;;;;;;;;;;4217089;28;20048;-85
2023/03/25 09:17:12;;;;;;;15.45;1.80;;;;;;;;;;4201064;28;20382;-81
2023/03/25 09:19:13;;;;;;;15.93;3.60;;;;;;;;;;4213283;28;20056;-83
2023/03/25 09:21:14;;;;;;;18.02;2.10;;;;;;;;;;4213647;28;20044;-81
2023/03/25 09:23:16;;;;;;;19.10;1.88;;;;;;;;;;4231922;28;20093;-83
2023/03/25 09:25:17;;;;;;;16.65;3.35;;;;;;;;;;4198440;28;20045;-84
2023/03/25 09:27:18;;;;;;;8.80;2.30;;;;;;;;;;4196685;28;20060;-83
2023/03/25 09:29:18;;;;;;;15.23;2.50;;;10.90;99.90;;;;;;4196287;28;20098;-83
2023/03/25 09:31:19;;;;;;;14.48;2.40;;;;;;;;;;4213799;28;20560;-83
2023/03/25 09:33:21;;;;;;;12.43;2.40;;;;;;;;;;4207407;28;20076;-84
2023/03/25 09:35:22;;;;;;;13.10;2.28;;;;;;;;;;4217613;28;20076;-84
2023/03/25 09:37:23;;;;;;;12.57;2.30;;;;;;;;;;4216089;28;20484;-85
2023/03/25 09:39:24;;;;;;;10.85;2.25;;;;;;;;;;4215039;28;20060;-83
2023/03/25 09:41:35;;;;;;;12.35;1.30;;;;;;;;;;4197930;28;20844;-83
2023/03/25 09:44:06;;;;;;;12.40;1.83;;;;;;;;;;4215627;28;20075;-86
2023/03/25 09:46:08;;;;;;;12.20;1.75;;;;;;;;;;4193500;28;20125;-83
2023/03/25 09:48:18;;;;;;;9.82;2.10;;;;;;;;;;4196624;28;20131;-83
2023/03/25 09:50:23;;;;;;;11.75;2.20;;;;;;;;;;4214659;28;20093;-83
2023/03/25 09:52:29;;;;;;;19.33;2.63;;;;;;;;;;4195659;28;20048;-84
2023/03/25 09:54:35;;;;;;;10.75;1.63;;;;;;;;;;4214574;28;20043;-84
2023/03/25 09:56:37;;;;;;;10.52;1.85;;;12.80;99.90;;;;;;4196697;28;20044;-83
2023/03/25 09:58:51;;;;;;;11.38;2.00;;;10.50;99.90;;;;;;4225233;28;20483;-84
2023/03/25 10:01:07;;;;;;;12.00;2.83;;;10.50;99.90;;;;;;4213284;28;20044;-83
2023/03/25 10:03:37;;;;;;;6.55;1.50;;;10.00;99.90;;;;;;4194757;28;20052;-84
2023/03/25 10:06:04;;;;;;;9.85;1.42;;;12.00;99.90;;;;;;4196105;28;20440;-83
2023/03/25 10:08:26;;;;;;;15.25;1.75;;;10.40;99.90;;;;;;4203421;28;20514;-84
2023/03/25 10:10:58;;;;;;;11.27;2.65;;;11.30;99.90;;;;;;4230543;28;20042;-81
2023/03/25 10:13:08;;;;;;;14.32;2.45;;;10.50;99.90;;;;;;4212486;28;20146;-84
2023/03/25 10:15:31;;;;;;;9.85;1.80;;;10.40;99.90;;;;;;4230791;28;20104;-85
2023/03/25 10:17:41;;;;;;;13.77;2.10;;;10.20;99.90;;;;;;4230521;28;20352;-84
2023/03/25 10:20:16;;;;;;;18.23;2.53;;;10.10;99.90;;;;;;4195876;28;20055;-84
2023/03/25 10:22:27;;;;;;;18.20;3.10;;;10.10;99.90;;;;;;4223037;28;20121;-84
2023/03/25 10:24:45;;;;;;;12.57;1.77;;;10.10;99.90;;;;;;4230963;28;20512;-84
2023/03/25 10:26:48;;;;;;;9.23;2.00;;;10.10;99.90;;;;;;4230047;28;20048;-80
2023/03/25 10:28:55;;;;;;;7.60;2.03;;;10.00;99.90;;;;;;4231069;28;20149;-79
2023/03/25 10:30:55;;;;;;;13.20;2.25;;;10.00;99.90;;;;;;4228961;27;20089;-79
2023/03/25 10:33:00;;;;;;;11.40;1.70;;;9.90;99.90;;;;;;4217689;28;20094;-82
2023/03/25 10:35:04;;;;;;;15.40;2.92;;;10.00;99.90;;;;;;4219931;28;20055;-83
2023/03/25 10:37:11;;;;;;;5.88;1.33;;;10.00;99.90;;;;;;4237592;28;20032;-83
2023/03/25 10:39:18;;;;;;;15.93;2.03;;;10.20;99.90;;;;;;4237711;28;20044;-83
2023/03/25 10:41:34;;;;;;;13.45;2.88;;;10.20;99.90;;;;;;4236788;28;20100;-82
2023/03/25 10:43:38;;;;;;;18.08;2.20;;;10.30;99.90;;;;;;4241008;28;20430;-83
2023/03/25 10:45:41;;;;;;;13.82;2.47;;;10.40;99.90;;;;;;4236264;28;20055;-84
2023/03/25 10:47:45;;;;;;;13.88;1.90;;;10.50;99.90;;;;;;4236797;28;20074;-84
2023/03/25 10:49:47;;;;;;;15.85;2.17;;;;;;;;;;4239717;28;20100;-83
2023/03/25 10:51:56;;;;;;;8.77;1.95;;;;;;;;;;4240160;28;20033;-83
2023/03/25 10:54:03;;;;;;;13.23;2.10;;;;;;;;;;4236103;28;20043;-83
2023/03/25 10:56:07;;;;;;;11.93;2.03;;;;;;;;;;4237239;28;20044;-83
2023/03/25 10:58:15;;;;;;;13.07;2.03;;;10.50;99.90;;;;;;4240499;28;20085;-83